createdAt,value
2024-01-15T00:02:19.853Z,98764.56
2024-01-15T00:04:48.940Z,98770.06
2024-01-15T00:07:18.751Z,98757.03
2024-01-15T00:09:50.308Z,98762.56
2024-01-15T00:12:20.276Z,98753.06
2024-01-15T00:14:50.418Z,98760.50
2024-01-15T00:17:21.389Z,98768.59
2024-01-15T00:19:51.240Z,98747.06
2024-01-15T00:22:21.220Z,98759.72
2024-01-15T00:24:52.732Z,98758.94
2024-01-15T00:27:22.865Z,98760.97
2024-01-15T00:29:53.403Z,98760.44
2024-01-15T00:32:23.550Z,98755.75
2024-01-15T00:34:53.874Z,98756.81
2024-01-15T00:37:23.765Z,98763.66
2024-01-15T00:39:57.428Z,98763.59
2024-01-15T00:42:26.755Z,98760.13
2024-01-15T00:44:56.738Z,98755.69
2024-01-15T00:47:26.692Z,98757.41
2024-01-15T00:49:56.496Z,98747.19
2024-01-15T00:52:27.560Z,98761.66
2024-01-15T00:54:58.905Z,98753.63
2024-01-15T00:57:30.167Z,98766.63
2024-01-15T01:00:02.266Z,98754.84
2024-01-15T01:02:34.990Z,98741.06
2024-01-15T01:05:08.639Z,98750.41
2024-01-15T01:07:42.940Z,98741.06
2024-01-15T01:10:14.356Z,98742.19
2024-01-15T01:12:44.682Z,98735.69
2024-01-15T01:15:14.786Z,98733.38
2024-01-15T01:17:49.025Z,98745.97
2024-01-15T01:20:19.634Z,98738.19
2024-01-15T01:22:50.350Z,98748.06
2024-01-15T01:25:22.609Z,98730.78
2024-01-15T01:27:53.749Z,98742.53
2024-01-15T01:30:24.003Z,98742.84
2024-01-15T01:32:53.872Z,98735.34
2024-01-15T01:35:23.618Z,98740.59
2024-01-15T01:37:53.638Z,98732.00
2024-01-15T01:40:25.129Z,98744.44
2024-01-15T01:42:54.197Z,98742.81
2024-01-15T01:45:24.146Z,98738.34
2024-01-15T01:47:54.226Z,98739.56
2024-01-15T01:50:25.437Z,98729.72
2024-01-15T01:52:55.130Z,98739.59
2024-01-15T01:55:29.109Z,98743.69
2024-01-15T01:57:59.400Z,98741.34
2024-01-15T02:00:29.266Z,98747.09
2024-01-15T02:02:59.285Z,98740.53
2024-01-15T02:05:30.357Z,98740.84
2024-01-15T02:07:59.892Z,98742.88
2024-01-15T02:10:31.304Z,98728.69
2024-01-15T02:13:01.427Z,98746.44
2024-01-15T02:15:31.313Z,98735.38
2024-01-15T02:18:02.449Z,98733.44
2024-01-15T02:20:33.109Z,98743.31
2024-01-15T02:23:11.983Z,98736.44
2024-01-15T02:25:43.606Z,98739.59
2024-01-15T02:28:14.495Z,98743.88
2024-01-15T02:30:45.899Z,98731.81
2024-01-15T02:33:16.139Z,98736.25
2024-01-15T02:35:47.799Z,98739.19
2024-01-15T02:38:19.348Z,98706.94
2024-01-15T02:40:50.140Z,98750.59
2024-01-15T02:43:20.749Z,98741.00
2024-01-15T02:45:52.855Z,98742.59
2024-01-15T02:48:22.921Z,98743.88
2024-01-15T02:50:53.115Z,98744.38
2024-01-15T02:53:24.241Z,98745.28
2024-01-15T02:55:53.619Z,98738.91
2024-01-15T02:58:23.864Z,98741.03
2024-01-15T03:00:53.513Z,98717.91
2024-01-15T03:03:23.330Z,98734.97
2024-01-15T03:05:53.577Z,98735.19
2024-01-15T03:08:25.082Z,98735.97
2024-01-15T03:10:55.307Z,98735.44
2024-01-15T03:13:25.421Z,98733.34
2024-01-15T03:15:55.990Z,98736.50
2024-01-15T03:18:25.992Z,98735.84
2024-01-15T03:20:55.831Z,98737.59
2024-01-15T03:23:26.984Z,98729.44
2024-01-15T03:25:56.545Z,98736.09
2024-01-15T03:28:26.826Z,98731.53
2024-01-15T03:30:59.658Z,98719.84
2024-01-15T03:33:29.797Z,98722.13
2024-01-15T03:35:59.758Z,98734.06
2024-01-15T03:38:34.952Z,98709.75
2024-01-15T03:41:05.250Z,98727.00
2024-01-15T03:43:35.023Z,98698.13
2024-01-15T03:46:05.814Z,98733.19
2024-01-15T03:48:35.481Z,98731.75
2024-01-15T03:51:05.955Z,98724.59
2024-01-15T03:53:37.068Z,98735.00
2024-01-15T03:56:07.431Z,98737.66
2024-01-15T03:58:37.071Z,98736.47
2024-01-15T04:01:11.730Z,98728.78
2024-01-15T04:03:44.252Z,98741.88
2024-01-15T04:06:14.294Z,98712.00
2024-01-15T04:08:45.732Z,98740.84
2024-01-15T04:11:15.328Z,98751.00
2024-01-15T04:13:44.980Z,98745.44
2024-01-15T04:16:14.472Z,98747.91
2024-01-15T04:18:44.451Z,98756.09
2024-01-15T04:21:13.907Z,98744.03
2024-01-15T04:23:45.504Z,98746.59
2024-01-15T04:26:15.505Z,98741.47
2024-01-15T04:28:46.088Z,98732.56
2024-01-15T04:31:24.578Z,98756.88
2024-01-15T04:33:54.740Z,98755.22
2024-01-15T04:36:25.712Z,98761.66
2024-01-15T04:38:56.362Z,98751.47
2024-01-15T04:41:26.226Z,98728.41
2024-01-15T04:43:56.297Z,98766.63
2024-01-15T04:46:26.015Z,98767.16
2024-01-15T04:48:59.280Z,98767.16
2024-01-15T04:51:29.754Z,98767.09
2024-01-15T04:54:01.156Z,98770.28
2024-01-15T04:56:34.905Z,98777.97
2024-01-15T04:59:05.418Z,98774.56
2024-01-15T05:01:35.938Z,98775.66
2024-01-15T05:04:06.043Z,98781.97
2024-01-15T05:06:39.059Z,98757.50
2024-01-15T05:09:14.716Z,98773.31
2024-01-15T05:11:47.669Z,98776.91
2024-01-15T05:14:18.325Z,98772.44
2024-01-15T05:16:52.041Z,98780.75
2024-01-15T05:19:23.370Z,98779.75
2024-01-15T05:21:53.735Z,98764.69
2024-01-15T05:24:28.491Z,98766.78
2024-01-15T05:26:58.912Z,98760.22
2024-01-15T05:29:29.389Z,98763.53
2024-01-15T05:32:03.152Z,98753.69
2024-01-15T05:34:33.788Z,98762.16
2024-01-15T05:37:07.675Z,98753.09
2024-01-15T05:39:39.114Z,98764.94
2024-01-15T05:42:11.755Z,98769.31
2024-01-15T05:44:49.280Z,98766.59
2024-01-15T05:47:22.037Z,98780.44
2024-01-15T05:49:51.889Z,98786.25
2024-01-15T05:52:23.628Z,98789.28
2024-01-15T05:54:55.325Z,98744.00
2024-01-15T05:57:25.084Z,98787.16
2024-01-15T05:59:55.161Z,98767.16
2024-01-15T06:02:24.821Z,98783.13
2024-01-15T06:04:57.384Z,98784.81
2024-01-15T06:07:28.702Z,98794.00
2024-01-15T06:10:02.705Z,98775.44
2024-01-15T06:12:35.665Z,98780.13
2024-01-15T06:15:06.079Z,98796.81
2024-01-15T06:17:36.931Z,98788.28
2024-01-15T06:20:10.386Z,98778.16
2024-01-15T06:22:42.518Z,98779.66
2024-01-15T06:25:14.326Z,98779.25
2024-01-15T06:27:44.441Z,98788.56
2024-01-15T06:30:15.276Z,98779.22
2024-01-15T06:32:45.432Z,98798.31
2024-01-15T06:35:15.476Z,98787.94
2024-01-15T06:37:45.873Z,98779.75
2024-01-15T06:40:17.358Z,98801.53
2024-01-15T06:42:47.026Z,98789.97
2024-01-15T06:45:16.717Z,98790.72
2024-01-15T06:47:46.406Z,98789.38
2024-01-15T06:50:16.833Z,98800.78
2024-01-15T06:52:46.693Z,98782.88
2024-01-15T06:55:17.804Z,98774.38
2024-01-15T06:57:48.223Z,98788.34
2024-01-15T07:00:21.956Z,98776.63
2024-01-15T07:02:51.549Z,98787.78
2024-01-15T07:05:23.033Z,98766.09
2024-01-15T07:07:54.251Z,98780.00
2024-01-15T07:10:25.238Z,98785.38
2024-01-15T07:12:55.182Z,98781.47
2024-01-15T07:15:25.464Z,98776.13
2024-01-15T07:17:55.263Z,98784.09
2024-01-15T07:20:25.672Z,98775.88
2024-01-15T07:22:55.786Z,98784.22
2024-01-15T07:25:27.634Z,98781.78
2024-01-15T07:27:57.217Z,98760.38
2024-01-15T07:30:27.039Z,98769.94
2024-01-15T07:32:57.101Z,98766.34
2024-01-15T07:35:27.358Z,98771.56
2024-01-15T07:37:56.995Z,98766.06
2024-01-15T07:40:28.045Z,98763.84
2024-01-15T07:42:58.015Z,98765.06
2024-01-15T07:45:30.454Z,98761.56
2024-01-15T07:48:00.577Z,98754.63
2024-01-15T07:50:30.177Z,98747.06
2024-01-15T07:53:00.129Z,98761.25
2024-01-15T07:55:30.912Z,98760.66
2024-01-15T07:58:11.211Z,98761.41
2024-01-15T08:00:45.971Z,98756.00
2024-01-15T08:03:16.823Z,98752.00
2024-01-15T08:05:46.732Z,98751.47
2024-01-15T08:08:16.644Z,98759.13
2024-01-15T08:10:50.688Z,98744.50
2024-01-15T08:13:21.466Z,98752.69
2024-01-15T08:15:51.896Z,98753.13
2024-01-15T08:18:23.101Z,98755.66
2024-01-15T08:20:53.562Z,98743.91
2024-01-15T08:23:24.027Z,98748.47
2024-01-15T08:25:55.498Z,98746.22
2024-01-15T08:28:24.873Z,98753.09
2024-01-15T08:30:55.504Z,98736.66
2024-01-15T08:33:25.607Z,98741.81
2024-01-15T08:35:55.464Z,98736.09
2024-01-15T08:38:26.672Z,98750.22
2024-01-15T08:41:00.108Z,98751.81
2024-01-15T08:43:32.279Z,98752.00
2024-01-15T08:46:02.254Z,98749.50
2024-01-15T08:48:32.773Z,98752.03
2024-01-15T08:51:02.424Z,98748.28
2024-01-15T08:53:32.484Z,98757.88
2024-01-15T08:56:05.095Z,98731.97
2024-01-15T08:58:37.837Z,98742.31
2024-01-15T09:01:07.809Z,98747.34
2024-01-15T09:03:38.232Z,98738.22
2024-01-15T09:06:08.615Z,98718.50
2024-01-15T09:08:38.698Z,98730.53
2024-01-15T09:11:10.229Z,98735.56
2024-01-15T09:13:39.655Z,98729.94
2024-01-15T09:16:10.215Z,98719.91
2024-01-15T09:18:40.103Z,98721.72
2024-01-15T09:21:10.415Z,98713.03
2024-01-15T09:23:40.811Z,98709.69
2024-01-15T09:26:12.709Z,98710.03
2024-01-15T09:28:44.248Z,98695.28
2024-01-15T09:31:14.952Z,98693.28
2024-01-15T09:33:44.948Z,98679.19
2024-01-15T09:36:15.413Z,98695.91
2024-01-15T09:38:45.545Z,98702.06
2024-01-15T09:41:17.209Z,98685.50
2024-01-15T09:43:49.617Z,98687.78
2024-01-15T09:46:20.152Z,98683.22
2024-01-15T09:48:50.980Z,98683.91
2024-01-15T09:51:21.366Z,98646.03
2024-01-15T09:53:52.348Z,98677.34
2024-01-15T09:56:23.915Z,98671.81
2024-01-15T09:58:54.254Z,98678.09
2024-01-15T10:01:25.377Z,98670.03
2024-01-15T10:03:55.597Z,98636.47
2024-01-15T10:06:26.941Z,98672.91
2024-01-15T10:08:59.400Z,98668.16
2024-01-15T10:11:30.660Z,98669.72
2024-01-15T10:14:04.116Z,98670.91
2024-01-15T10:16:33.934Z,98659.03
2024-01-15T10:19:04.264Z,98661.03
2024-01-15T10:21:36.447Z,98654.09
2024-01-15T10:24:07.210Z,98646.31
2024-01-15T10:26:38.556Z,98654.13
2024-01-15T10:29:08.400Z,98628.59
2024-01-15T10:31:38.672Z,98640.31
2024-01-15T10:34:17.238Z,98642.97
2024-01-15T10:36:53.834Z,98640.56
2024-01-15T10:39:23.966Z,98627.41
2024-01-15T10:41:56.626Z,98646.78
2024-01-15T10:44:26.906Z,98630.19
2024-01-15T10:46:59.607Z,98636.13
2024-01-15T10:49:33.225Z,98622.00
2024-01-15T10:52:05.110Z,98621.63
2024-01-15T10:54:35.459Z,98617.22
2024-01-15T10:57:07.792Z,98627.16
2024-01-15T10:59:39.117Z,98619.28
2024-01-15T11:02:11.730Z,98614.25
2024-01-15T11:04:42.569Z,98613.66
2024-01-15T11:07:14.051Z,98596.31
2024-01-15T11:09:44.271Z,98602.47
2024-01-15T11:12:17.621Z,98609.59
2024-01-15T11:14:49.308Z,98603.44
2024-01-15T11:17:20.447Z,98592.16
2024-01-15T11:19:53.606Z,98578.44
2024-01-15T11:22:58.765Z,98586.91
2024-01-15T11:25:39.133Z,98592.25
2024-01-15T11:28:13.438Z,98586.16
2024-01-15T11:30:45.313Z,98600.25
2024-01-15T11:33:36.128Z,98603.19
2024-01-15T11:36:06.700Z,98611.09
2024-01-15T11:38:36.951Z,98594.72
2024-01-15T11:41:17.386Z,98593.06
2024-01-15T11:43:48.329Z,98595.53
2024-01-15T11:46:21.023Z,98588.72
2024-01-15T11:49:03.555Z,98583.81
2024-01-15T11:51:33.311Z,98588.59
2024-01-15T11:54:11.154Z,98601.44
2024-01-15T11:56:41.518Z,98590.66
2024-01-15T11:59:12.869Z,98590.63
2024-01-15T12:01:44.013Z,98581.56
2024-01-15T12:04:19.120Z,98575.88
2024-01-15T12:06:49.993Z,98570.59
2024-01-15T12:09:23.168Z,98575.63
2024-01-15T12:11:57.266Z,98563.31
2024-01-15T12:14:30.697Z,98543.69
2024-01-15T12:17:03.012Z,98564.28
2024-01-15T12:19:34.801Z,98582.84
2024-01-15T12:22:05.264Z,98585.47
2024-01-15T12:24:37.680Z,98587.03
2024-01-15T12:27:07.712Z,98568.88
2024-01-15T12:29:40.385Z,98585.03
2024-01-15T12:32:09.986Z,98557.09
2024-01-15T12:34:40.843Z,98566.91
2024-01-15T12:37:12.401Z,98559.16
2024-01-15T12:39:45.392Z,98564.31
2024-01-15T12:42:18.054Z,98563.50
2024-01-15T12:44:48.927Z,98557.19
2024-01-15T12:47:20.354Z,98552.16
2024-01-15T12:49:59.716Z,98555.78
2024-01-15T12:52:35.694Z,98547.47
2024-01-15T12:55:06.097Z,98549.19
2024-01-15T12:57:36.851Z,98530.75
2024-01-15T13:00:14.254Z,98542.53
2024-01-15T13:02:45.220Z,98538.38
2024-01-15T13:05:16.035Z,98548.44
2024-01-15T13:07:46.273Z,98553.72
2024-01-15T13:10:15.927Z,98553.06
2024-01-15T13:12:49.302Z,98549.44
2024-01-15T13:15:20.221Z,98555.25
2024-01-15T13:17:50.627Z,98553.47
2024-01-15T13:20:20.375Z,98554.88
2024-01-15T13:22:50.386Z,98535.47
2024-01-15T13:25:21.772Z,98549.19
2024-01-15T13:27:52.822Z,98544.13
2024-01-15T13:30:24.751Z,98533.25
2024-01-15T13:32:55.632Z,98541.09
2024-01-15T13:35:29.480Z,98540.72
2024-01-15T13:38:01.140Z,98550.28
2024-01-15T13:40:30.889Z,98534.72
2024-01-15T13:43:00.816Z,98538.31
2024-01-15T13:45:32.624Z,98543.94
2024-01-15T13:48:02.821Z,98542.53
2024-01-15T13:50:32.691Z,98548.72
2024-01-15T13:53:03.017Z,98546.00
2024-01-15T13:55:33.170Z,98550.91
2024-01-15T13:58:05.235Z,98544.19
2024-01-15T14:00:37.632Z,98546.94
2024-01-15T14:03:08.300Z,98542.78
2024-01-15T14:05:38.097Z,98544.63
2024-01-15T14:08:09.278Z,98539.28
2024-01-15T14:10:38.761Z,98542.53
2024-01-15T14:13:08.529Z,98549.59
2024-01-15T14:15:40.237Z,98550.91
2024-01-15T14:18:10.329Z,98540.97
2024-01-15T14:20:40.444Z,98535.31
2024-01-15T14:23:10.552Z,98524.28
2024-01-15T14:25:40.683Z,98538.19
2024-01-15T14:28:10.454Z,98550.78
2024-01-15T14:30:41.723Z,98543.72
2024-01-15T14:33:12.375Z,98543.25
2024-01-15T14:35:42.682Z,98543.81
2024-01-15T14:38:12.505Z,98541.03
2024-01-15T14:40:42.496Z,98561.69
2024-01-15T14:43:12.774Z,98553.34
2024-01-15T14:45:47.121Z,98554.19
2024-01-15T14:48:17.396Z,98554.13
2024-01-15T14:50:47.522Z,98542.97
2024-01-15T14:53:21.043Z,98546.88
2024-01-15T14:55:51.715Z,98551.69
2024-01-15T14:58:21.738Z,98547.28
2024-01-15T15:00:53.311Z,98528.00
2024-01-15T15:03:23.552Z,98521.66
2024-01-15T15:05:53.709Z,98519.50
2024-01-15T15:08:23.824Z,98490.53
2024-01-15T15:10:53.796Z,98514.94
2024-01-15T15:13:33.989Z,98503.66
2024-01-15T15:16:14.589Z,98514.06
2024-01-15T15:18:45.403Z,98509.53
2024-01-15T15:21:15.721Z,98506.66
2024-01-15T15:23:45.734Z,98525.03
2024-01-15T15:26:15.720Z,98521.34
2024-01-15T15:28:45.669Z,98524.69
2024-01-15T15:31:16.997Z,98525.50
2024-01-15T15:33:47.113Z,98522.84
2024-01-15T15:36:17.807Z,98514.81
2024-01-15T15:38:49.440Z,98514.22
2024-01-15T15:41:21.109Z,98501.31
2024-01-15T15:43:50.966Z,98497.66
2024-01-15T15:46:22.101Z,98505.38
2024-01-15T15:48:51.938Z,98488.38
2024-01-15T15:51:22.163Z,98477.59
2024-01-15T15:53:53.031Z,98504.09
2024-01-15T15:56:22.791Z,98499.41
2024-01-15T15:58:52.838Z,98503.38
2024-01-15T16:01:24.011Z,98500.41
2024-01-15T16:03:54.677Z,98482.13
2024-01-15T16:06:24.866Z,98484.25
2024-01-15T16:08:57.935Z,98513.94
2024-01-15T16:11:28.116Z,98525.50
2024-01-15T16:14:01.313Z,98522.00
2024-01-15T16:23:11.703Z,98527.41
2024-01-15T16:23:25.337Z,98527.41
2024-01-15T16:23:41.020Z,98514.97
2024-01-15T16:25:08.673Z,98517.75
2024-01-15T16:27:39.719Z,98516.00
2024-01-15T16:30:20.593Z,98518.00
2024-01-15T16:32:59.017Z,98511.25
2024-01-15T16:35:29.705Z,98509.13
2024-01-15T16:37:59.950Z,98495.06
2024-01-15T16:40:30.209Z,98508.97
2024-01-15T16:43:02.226Z,98512.75
2024-01-15T16:45:32.067Z,98516.53
2024-01-15T16:48:04.139Z,98514.34
2024-01-15T16:50:34.416Z,98519.00
2024-01-15T16:53:04.931Z,98525.34
2024-01-15T16:55:34.874Z,98514.47
2024-01-15T16:58:05.366Z,98516.34
2024-01-15T17:00:35.458Z,98521.25
2024-01-15T17:03:07.566Z,98519.06
2024-01-15T17:05:38.525Z,98510.00
2024-01-15T17:08:08.903Z,98512.44
2024-01-15T17:10:41.553Z,98505.91
2024-01-15T17:13:11.939Z,98497.91
2024-01-15T17:15:43.173Z,98472.34
2024-01-15T17:18:15.257Z,98519.94
2024-01-15T17:20:47.347Z,98506.69
2024-01-15T17:23:20.426Z,98510.16
2024-01-15T17:25:50.613Z,98526.53
2024-01-15T17:28:23.675Z,98516.00
2024-01-15T17:30:54.099Z,98517.72
2024-01-15T17:33:25.797Z,98507.94
2024-01-15T17:35:57.611Z,98505.84
2024-01-15T17:38:30.695Z,98512.66
2024-01-15T17:41:01.331Z,98503.34
2024-01-15T17:43:33.942Z,98499.03
2024-01-15T17:46:05.317Z,98501.00
2024-01-15T17:48:38.004Z,98464.50
2024-01-15T17:51:10.458Z,98501.34
2024-01-15T17:53:40.561Z,98502.91
2024-01-15T17:56:10.638Z,98487.44
2024-01-15T17:58:42.060Z,98490.59
2024-01-15T18:01:12.579Z,98490.50
2024-01-15T18:03:44.449Z,98488.97
2024-01-15T18:06:15.262Z,98488.19
2024-01-15T18:08:45.658Z,98491.91
2024-01-15T18:11:19.344Z,98480.41
2024-01-15T18:13:49.141Z,98487.34
2024-01-15T18:16:23.999Z,98484.81
2024-01-15T18:18:55.335Z,98482.66
2024-01-15T18:21:25.735Z,98483.50
2024-01-15T18:23:55.957Z,98478.72
2024-01-15T18:26:27.173Z,98475.47
2024-01-15T18:28:57.613Z,98466.41
2024-01-15T18:31:33.830Z,98457.78
2024-01-15T18:34:05.486Z,98468.41
2024-01-15T18:36:35.622Z,98466.13
2024-01-15T18:39:07.299Z,98488.38
2024-01-15T18:41:41.460Z,98472.38
2024-01-15T18:44:13.364Z,98472.34
2024-01-15T18:46:47.831Z,98473.28
2024-01-15T18:49:20.910Z,98477.00
2024-01-15T18:51:54.390Z,98476.16
2024-01-15T18:54:25.293Z,98472.13
2024-01-15T18:56:56.348Z,98465.19
2024-01-15T18:59:26.861Z,98467.88
2024-01-15T19:01:57.248Z,98469.75
2024-01-15T19:04:28.660Z,98473.84
2024-01-15T19:07:00.778Z,98478.09
2024-01-15T19:09:31.588Z,98470.13
2024-01-15T19:12:01.481Z,98467.09
2024-01-15T19:14:31.803Z,98465.03
2024-01-15T19:17:05.954Z,98463.03
2024-01-15T19:19:39.292Z,98472.47
2024-01-15T19:22:10.440Z,98474.69
2024-01-15T19:24:43.484Z,98477.28
2024-01-15T19:27:13.601Z,98474.09
2024-01-15T19:29:44.210Z,98463.41
2024-01-15T19:32:15.605Z,98467.53
2024-01-15T19:34:47.062Z,98470.50
2024-01-15T19:37:16.949Z,98477.94
2024-01-15T19:39:46.709Z,98472.31
2024-01-15T19:42:17.050Z,98465.97
2024-01-15T19:44:46.755Z,98464.03
2024-01-15T19:47:16.765Z,98456.31
2024-01-15T19:49:49.206Z,98452.97
2024-01-15T19:52:19.821Z,98449.63
2024-01-15T19:54:49.992Z,98460.00
2024-01-15T19:57:20.250Z,98459.88
2024-01-15T19:59:54.707Z,98467.06
2024-01-15T20:02:25.551Z,98455.13
2024-01-15T20:04:57.580Z,98458.78
2024-01-15T20:07:27.633Z,98461.97
2024-01-15T20:09:58.475Z,98451.66
2024-01-15T20:12:28.328Z,98440.28
2024-01-15T20:14:58.701Z,98452.97
2024-01-15T20:17:28.993Z,98454.00
2024-01-15T20:20:01.214Z,98451.44
2024-01-15T20:22:34.915Z,98443.53
2024-01-15T20:25:06.144Z,98439.22
2024-01-15T20:27:37.194Z,98435.72
2024-01-15T20:30:09.902Z,98441.22
2024-01-15T20:32:41.094Z,98440.84
2024-01-15T20:35:13.467Z,98447.31
2024-01-15T20:37:47.425Z,98446.50
2024-01-15T20:40:22.541Z,98443.38
2024-01-15T20:42:53.390Z,98454.16
2024-01-15T20:45:25.429Z,98451.94
2024-01-15T20:47:57.061Z,98435.06
2024-01-15T20:50:28.863Z,98462.13
2024-01-15T20:52:58.925Z,98470.69
2024-01-15T20:55:29.323Z,98446.50
2024-01-15T20:57:59.190Z,98463.97
2024-01-15T21:00:30.342Z,98434.44
2024-01-15T21:03:00.444Z,98439.91
2024-01-15T21:05:33.257Z,98459.38
2024-01-15T21:08:04.198Z,98456.34
2024-01-15T21:10:34.046Z,98455.47
2024-01-15T21:13:05.250Z,98456.75
2024-01-15T21:15:35.734Z,98446.84
2024-01-15T21:18:07.076Z,98453.16
2024-01-15T21:20:41.097Z,98460.81
2024-01-15T21:23:12.781Z,98446.16
2024-01-15T21:25:43.187Z,98446.72
2024-01-15T21:28:13.615Z,98442.59
2024-01-15T21:30:43.637Z,98442.03
2024-01-15T21:33:13.793Z,98423.84
2024-01-15T21:35:45.084Z,98440.72
2024-01-15T21:38:15.793Z,98445.75
2024-01-15T21:40:46.053Z,98450.06
2024-01-15T21:43:21.848Z,98436.25
2024-01-15T21:45:53.099Z,98446.22
2024-01-15T21:48:23.292Z,98458.16
2024-01-15T21:50:54.969Z,98450.88
2024-01-15T21:53:25.322Z,98460.31
2024-01-15T21:55:57.049Z,98462.34
2024-01-15T21:58:27.021Z,98470.91
2024-01-15T22:00:57.297Z,98462.22
2024-01-15T22:03:28.959Z,98454.34
2024-01-15T22:06:02.292Z,98452.31
2024-01-15T22:08:32.495Z,98456.69
2024-01-15T22:11:03.037Z,98454.84
2024-01-15T22:13:33.732Z,98466.72
2024-01-15T22:16:04.154Z,98467.06
2024-01-15T22:18:35.926Z,98472.34
2024-01-15T22:21:07.733Z,98463.84
2024-01-15T22:23:37.337Z,98466.41
2024-01-15T22:26:08.287Z,98463.28
2024-01-15T22:28:37.994Z,98466.41
2024-01-15T22:31:08.718Z,98466.91
2024-01-15T22:33:38.880Z,98473.25
2024-01-15T22:36:11.598Z,98468.31
2024-01-15T22:38:42.353Z,98459.09
2024-01-15T22:41:12.375Z,98463.44
2024-01-15T22:43:42.802Z,98448.94
2024-01-15T22:46:13.195Z,98438.59
2024-01-15T22:48:43.041Z,98456.56
2024-01-15T22:51:15.013Z,98469.06
2024-01-15T22:53:45.314Z,98453.66
2024-01-15T22:56:15.370Z,98470.75
2024-01-15T22:58:45.290Z,98457.88
2024-01-15T23:01:33.724Z,98457.38
2024-01-15T23:04:25.417Z,98451.53
2024-01-15T23:07:15.976Z,98463.69
2024-01-15T23:10:05.036Z,98448.88
2024-01-15T23:12:53.327Z,98463.31
2024-01-15T23:15:42.140Z,98462.63
2024-01-15T23:18:30.575Z,98475.56
2024-01-15T23:21:20.097Z,98465.91
2024-01-15T23:24:10.348Z,98488.38
2024-01-15T23:26:58.558Z,98468.31
2024-01-15T23:29:56.217Z,98451.59
2024-01-15T23:32:45.221Z,98467.66
2024-01-15T23:35:33.512Z,98455.66
2024-01-15T23:38:22.011Z,98468.44
2024-01-15T23:41:19.916Z,98464.63
2024-01-15T23:44:09.487Z,98478.66
2024-01-15T23:46:57.819Z,98470.34
2024-01-15T23:49:46.683Z,98468.41
2024-01-15T23:52:35.487Z,98451.84
2024-01-15T23:55:23.524Z,98450.44
2024-01-15T23:58:13.398Z,98459.72
